sensor_id;sensor_type;location;lat;lon;timestamp;pressure;altitude;pressure_sealevel;temperature
73937;BMP180;59249;59.736;30.568;2023-07-31T00:01:29;100258.00;;;15.90
73937;BMP180;59249;59.736;30.568;2023-07-31T00:03:58;100266.00;;;15.90
73937;BMP180;59249;59.736;30.568;2023-07-31T00:06:30;100269.00;;;15.90
73937;BMP180;59249;59.736;30.568;2023-07-31T00:09:00;100267.00;;;15.90
73937;BMP180;59249;59.736;30.568;2023-07-31T00:11:30;100262.00;;;15.90
73937;BMP180;59249;59.736;30.568;2023-07-31T00:13:59;100269.00;;;15.80
73937;BMP180;59249;59.736;30.568;2023-07-31T00:16:28;100271.00;;;15.80
73937;BMP180;59249;59.736;30.568;2023-07-31T00:18:57;100276.00;;;15.80
73937;BMP180;59249;59.736;30.568;2023-07-31T00:21:28;100276.00;;;15.70
73937;BMP180;59249;59.736;30.568;2023-07-31T00:23:57;100288.00;;;15.70
73937;BMP180;59249;59.736;30.568;2023-07-31T00:26:27;100281.00;;;15.70
73937;BMP180;59249;59.736;30.568;2023-07-31T00:28:58;100281.00;;;15.70
73937;BMP180;59249;59.736;30.568;2023-07-31T00:31:27;100278.00;;;15.70
73937;BMP180;59249;59.736;30.568;2023-07-31T00:33:59;100278.00;;;15.70
73937;BMP180;59249;59.736;30.568;2023-07-31T00:36:29;100279.00;;;15.70
73937;BMP180;59249;59.736;30.568;2023-07-31T00:38:58;100281.00;;;15.70
73937;BMP180;59249;59.736;30.568;2023-07-31T00:41:28;100285.00;;;15.70
73937;BMP180;59249;59.736;30.568;2023-07-31T00:43:58;100281.00;;;15.70
73937;BMP180;59249;59.736;30.568;2023-07-31T00:46:27;100286.00;;;15.70
73937;BMP180;59249;59.736;30.568;2023-07-31T00:48:56;100285.00;;;15.70
73937;BMP180;59249;59.736;30.568;2023-07-31T00:51:26;100287.00;;;15.70
73937;BMP180;59249;59.736;30.568;2023-07-31T00:53:56;100287.00;;;15.70
73937;BMP180;59249;59.736;30.568;2023-07-31T00:56:28;100292.00;;;15.60
73937;BMP180;59249;59.736;30.568;2023-07-31T00:58:57;100297.00;;;15.60
73937;BMP180;59249;59.736;30.568;2023-07-31T01:01:27;100291.00;;;15.60
73937;BMP180;59249;59.736;30.568;2023-07-31T01:03:57;100288.00;;;15.60
73937;BMP180;59249;59.736;30.568;2023-07-31T01:06:31;100281.00;;;15.50
73937;BMP180;59249;59.736;30.568;2023-07-31T01:09:11;100290.00;;;15.60
73937;BMP180;59249;59.736;30.568;2023-07-31T01:11:49;100288.00;;;15.60
73937;BMP180;59249;59.736;30.568;2023-07-31T01:14:24;100288.00;;;15.50
73937;BMP180;59249;59.736;30.568;2023-07-31T01:16:53;100288.00;;;15.50
73937;BMP180;59249;59.736;30.568;2023-07-31T01:19:24;100285.00;;;15.50
73937;BMP180;59249;59.736;30.568;2023-07-31T01:22:27;100284.00;;;15.50
73937;BMP180;59249;59.736;30.568;2023-07-31T01:25:19;100282.00;;;15.50
73937;BMP180;59249;59.736;30.568;2023-07-31T01:28:10;100284.00;;;15.50
73937;BMP180;59249;59.736;30.568;2023-07-31T01:30:45;100287.00;;;15.40
73937;BMP180;59249;59.736;30.568;2023-07-31T01:33:17;100277.00;;;15.40
73937;BMP180;59249;59.736;30.568;2023-07-31T01:35:47;100267.00;;;15.40
73937;BMP180;59249;59.736;30.568;2023-07-31T01:38:21;100270.00;;;15.40
73937;BMP180;59249;59.736;30.568;2023-07-31T01:40:51;100273.00;;;15.40
73937;BMP180;59249;59.736;30.568;2023-07-31T01:43:22;100269.00;;;15.40
73937;BMP180;59249;59.736;30.568;2023-07-31T01:45:51;100272.00;;;15.40
73937;BMP180;59249;59.736;30.568;2023-07-31T01:48:21;100276.00;;;15.40
73937;BMP180;59249;59.736;30.568;2023-07-31T01:50:50;100269.00;;;15.50
73937;BMP180;59249;59.736;30.568;2023-07-31T01:53:19;100271.00;;;15.50
73937;BMP180;59249;59.736;30.568;2023-07-31T01:55:48;100276.00;;;15.50
73937;BMP180;59249;59.736;30.568;2023-07-31T01:58:17;100275.00;;;15.50
73937;BMP180;59249;59.736;30.568;2023-07-31T02:00:48;100275.00;;;15.60
73937;BMP180;59249;59.736;30.568;2023-07-31T02:03:17;100264.00;;;15.60
73937;BMP180;59249;59.736;30.568;2023-07-31T02:05:46;100261.00;;;15.70
73937;BMP180;59249;59.736;30.568;2023-07-31T02:08:17;100266.00;;;15.70
73937;BMP180;59249;59.736;30.568;2023-07-31T02:10:46;100266.00;;;15.70
73937;BMP180;59249;59.736;30.568;2023-07-31T02:13:15;100272.00;;;15.70
73937;BMP180;59249;59.736;30.568;2023-07-31T02:15:45;100262.00;;;15.80
73937;BMP180;59249;59.736;30.568;2023-07-31T02:18:16;100261.00;;;15.90
73937;BMP180;59249;59.736;30.568;2023-07-31T02:20:49;100253.00;;;16.10
73937;BMP180;59249;59.736;30.568;2023-07-31T02:23:19;100266.00;;;16.30
73937;BMP180;59249;59.736;30.568;2023-07-31T02:25:49;100268.00;;;16.60
73937;BMP180;59249;59.736;30.568;2023-07-31T02:28:26;100271.00;;;17.10
73937;BMP180;59249;59.736;30.568;2023-07-31T02:30:57;100273.00;;;17.50
73937;BMP180;59249;59.736;30.568;2023-07-31T02:33:29;100270.00;;;17.70
73937;BMP180;59249;59.736;30.568;2023-07-31T02:35:58;100272.00;;;17.90
73937;BMP180;59249;59.736;30.568;2023-07-31T02:38:27;100276.00;;;18.20
73937;BMP180;59249;59.736;30.568;2023-07-31T02:40:56;100268.00;;;18.50
73937;BMP180;59249;59.736;30.568;2023-07-31T02:43:27;100269.00;;;18.60
73937;BMP180;59249;59.736;30.568;2023-07-31T02:45:56;100265.00;;;18.90
73937;BMP180;59249;59.736;30.568;2023-07-31T02:48:26;100266.00;;;19.00
73937;BMP180;59249;59.736;30.568;2023-07-31T02:51:00;100266.00;;;19.00
73937;BMP180;59249;59.736;30.568;2023-07-31T02:53:31;100258.00;;;19.20
73937;BMP180;59249;59.736;30.568;2023-07-31T02:56:00;100251.00;;;19.40
73937;BMP180;59249;59.736;30.568;2023-07-31T02:58:29;100258.00;;;19.60
73937;BMP180;59249;59.736;30.568;2023-07-31T03:00:58;100257.00;;;19.70
73937;BMP180;59249;59.736;30.568;2023-07-31T03:03:27;100255.00;;;19.80
73937;BMP180;59249;59.736;30.568;2023-07-31T03:05:57;100254.00;;;19.80
73937;BMP180;59249;59.736;30.568;2023-07-31T03:08:30;100256.00;;;20.00
73937;BMP180;59249;59.736;30.568;2023-07-31T03:11:01;100251.00;;;20.20
73937;BMP180;59249;59.736;30.568;2023-07-31T03:13:30;100255.00;;;20.50
73937;BMP180;59249;59.736;30.568;2023-07-31T03:15:59;100251.00;;;20.70
73937;BMP180;59249;59.736;30.568;2023-07-31T03:18:28;100265.00;;;20.80
73937;BMP180;59249;59.736;30.568;2023-07-31T03:20:57;100265.00;;;21.00
73937;BMP180;59249;59.736;30.568;2023-07-31T03:23:26;100262.00;;;21.20
73937;BMP180;59249;59.736;30.568;2023-07-31T03:25:58;100267.00;;;21.10
73937;BMP180;59249;59.736;30.568;2023-07-31T03:28:28;100264.00;;;20.90
73937;BMP180;59249;59.736;30.568;2023-07-31T03:30:58;100267.00;;;20.70
73937;BMP180;59249;59.736;30.568;2023-07-31T03:33:27;100269.00;;;20.50
73937;BMP180;59249;59.736;30.568;2023-07-31T03:35:57;100258.00;;;20.20
73937;BMP180;59249;59.736;30.568;2023-07-31T03:38:26;100256.00;;;20.10
73937;BMP180;59249;59.736;30.568;2023-07-31T03:40:57;100261.00;;;19.90
73937;BMP180;59249;59.736;30.568;2023-07-31T03:43:27;100253.00;;;19.80
73937;BMP180;59249;59.736;30.568;2023-07-31T03:45:56;100257.00;;;19.80
73937;BMP180;59249;59.736;30.568;2023-07-31T03:48:25;100255.00;;;19.60
73937;BMP180;59249;59.736;30.568;2023-07-31T03:50:55;100252.00;;;19.70
73937;BMP180;59249;59.736;30.568;2023-07-31T03:53:25;100254.00;;;19.70
73937;BMP180;59249;59.736;30.568;2023-07-31T03:55:54;100266.00;;;19.60
73937;BMP180;59249;59.736;30.568;2023-07-31T03:58:25;100254.00;;;19.70
73937;BMP180;59249;59.736;30.568;2023-07-31T04:00:57;100251.00;;;19.70
73937;BMP180;59249;59.736;30.568;2023-07-31T04:03:42;100247.00;;;19.60
73937;BMP180;59249;59.736;30.568;2023-07-31T04:06:11;100246.00;;;19.60
73937;BMP180;59249;59.736;30.568;2023-07-31T04:08:40;100244.00;;;19.40
73937;BMP180;59249;59.736;30.568;2023-07-31T04:11:17;100247.00;;;19.30
73937;BMP180;59249;59.736;30.568;2023-07-31T04:13:48;100242.00;;;19.30
73937;BMP180;59249;59.736;30.568;2023-07-31T04:16:17;100251.00;;;19.30
73937;BMP180;59249;59.736;30.568;2023-07-31T04:18:46;100238.00;;;19.30
73937;BMP180;59249;59.736;30.568;2023-07-31T04:21:15;100232.00;;;19.40
73937;BMP180;59249;59.736;30.568;2023-07-31T04:23:45;100247.00;;;19.50
73937;BMP180;59249;59.736;30.568;2023-07-31T04:26:14;100240.00;;;19.60
73937;BMP180;59249;59.736;30.568;2023-07-31T04:28:43;100244.00;;;19.80
73937;BMP180;59249;59.736;30.568;2023-07-31T04:31:13;100250.00;;;20.00
73937;BMP180;59249;59.736;30.568;2023-07-31T04:33:42;100242.00;;;20.20
73937;BMP180;59249;59.736;30.568;2023-07-31T04:36:11;100239.00;;;20.30
73937;BMP180;59249;59.736;30.568;2023-07-31T04:38:40;100233.00;;;20.40
73937;BMP180;59249;59.736;30.568;2023-07-31T04:41:09;100235.00;;;20.40
73937;BMP180;59249;59.736;30.568;2023-07-31T04:43:40;100238.00;;;20.40
73937;BMP180;59249;59.736;30.568;2023-07-31T04:46:13;100236.00;;;20.40
73937;BMP180;59249;59.736;30.568;2023-07-31T04:48:42;100238.00;;;20.50
73937;BMP180;59249;59.736;30.568;2023-07-31T04:51:11;100233.00;;;20.50
73937;BMP180;59249;59.736;30.568;2023-07-31T04:53:40;100229.00;;;20.60
73937;BMP180;59249;59.736;30.568;2023-07-31T04:56:10;100225.00;;;20.70
73937;BMP180;59249;59.736;30.568;2023-07-31T04:58:39;100224.00;;;20.80
73937;BMP180;59249;59.736;30.568;2023-07-31T05:01:08;100224.00;;;20.80
73937;BMP180;59249;59.736;30.568;2023-07-31T05:03:38;100228.00;;;20.80
73937;BMP180;59249;59.736;30.568;2023-07-31T05:06:08;100229.00;;;21.00
73937;BMP180;59249;59.736;30.568;2023-07-31T05:08:37;100229.00;;;21.00
73937;BMP180;59249;59.736;30.568;2023-07-31T05:11:06;100231.00;;;21.20
73937;BMP180;59249;59.736;30.568;2023-07-31T05:13:35;100227.00;;;21.30
73937;BMP180;59249;59.736;30.568;2023-07-31T05:16:04;100233.00;;;21.40
73937;BMP180;59249;59.736;30.568;2023-07-31T05:18:33;100231.00;;;21.50
73937;BMP180;59249;59.736;30.568;2023-07-31T05:21:04;100243.00;;;21.60
73937;BMP180;59249;59.736;30.568;2023-07-31T05:23:33;100240.00;;;21.70
73937;BMP180;59249;59.736;30.568;2023-07-31T05:26:03;100235.00;;;21.70
73937;BMP180;59249;59.736;30.568;2023-07-31T05:28:34;100232.00;;;21.70
73937;BMP180;59249;59.736;30.568;2023-07-31T05:31:05;100233.00;;;21.70
73937;BMP180;59249;59.736;30.568;2023-07-31T05:33:35;100241.00;;;21.80
73937;BMP180;59249;59.736;30.568;2023-07-31T05:36:06;100236.00;;;21.90
73937;BMP180;59249;59.736;30.568;2023-07-31T05:38:35;100227.00;;;22.00
73937;BMP180;59249;59.736;30.568;2023-07-31T05:41:04;100234.00;;;22.20
73937;BMP180;59249;59.736;30.568;2023-07-31T05:43:33;100236.00;;;22.30
73937;BMP180;59249;59.736;30.568;2023-07-31T05:46:02;100235.00;;;22.50
73937;BMP180;59249;59.736;30.568;2023-07-31T05:48:33;100235.00;;;22.60
73937;BMP180;59249;59.736;30.568;2023-07-31T05:51:02;100233.00;;;22.70
73937;BMP180;59249;59.736;30.568;2023-07-31T05:53:33;100241.00;;;22.90
73937;BMP180;59249;59.736;30.568;2023-07-31T05:56:03;100238.00;;;22.80
73937;BMP180;59249;59.736;30.568;2023-07-31T05:58:32;100245.00;;;22.90
73937;BMP180;59249;59.736;30.568;2023-07-31T06:01:02;100246.00;;;23.10
73937;BMP180;59249;59.736;30.568;2023-07-31T06:03:31;100243.00;;;23.20
73937;BMP180;59249;59.736;30.568;2023-07-31T06:06:00;100247.00;;;23.20
73937;BMP180;59249;59.736;30.568;2023-07-31T06:08:29;100248.00;;;23.30
73937;BMP180;59249;59.736;30.568;2023-07-31T06:11:04;100249.00;;;23.30
73937;BMP180;59249;59.736;30.568;2023-07-31T06:13:34;100238.00;;;23.40
73937;BMP180;59249;59.736;30.568;2023-07-31T06:16:04;100240.00;;;23.40
73937;BMP180;59249;59.736;30.568;2023-07-31T06:18:33;100239.00;;;23.50
73937;BMP180;59249;59.736;30.568;2023-07-31T06:21:02;100236.00;;;23.50
73937;BMP180;59249;59.736;30.568;2023-07-31T06:23:32;100250.00;;;23.60
73937;BMP180;59249;59.736;30.568;2023-07-31T06:26:01;100248.00;;;23.70
73937;BMP180;59249;59.736;30.568;2023-07-31T06:28:32;100247.00;;;23.80
73937;BMP180;59249;59.736;30.568;2023-07-31T06:31:01;100249.00;;;23.90
73937;BMP180;59249;59.736;30.568;2023-07-31T06:33:33;100246.00;;;24.00
73937;BMP180;59249;59.736;30.568;2023-07-31T06:36:02;100240.00;;;24.00
73937;BMP180;59249;59.736;30.568;2023-07-31T06:38:31;100234.00;;;24.10
73937;BMP180;59249;59.736;30.568;2023-07-31T06:41:00;100232.00;;;24.10
73937;BMP180;59249;59.736;30.568;2023-07-31T06:43:31;100238.00;;;24.20
73937;BMP180;59249;59.736;30.568;2023-07-31T06:46:04;100239.00;;;24.20
73937;BMP180;59249;59.736;30.568;2023-07-31T06:48:34;100230.00;;;24.30
73937;BMP180;59249;59.736;30.568;2023-07-31T06:51:04;100231.00;;;24.40
73937;BMP180;59249;59.736;30.568;2023-07-31T06:53:33;100239.00;;;24.50
73937;BMP180;59249;59.736;30.568;2023-07-31T06:56:02;100240.00;;;24.50
73937;BMP180;59249;59.736;30.568;2023-07-31T06:58:34;100239.00;;;24.30
73937;BMP180;59249;59.736;30.568;2023-07-31T07:01:03;100244.00;;;24.40
73937;BMP180;59249;59.736;30.568;2023-07-31T07:03:32;100241.00;;;24.30
73937;BMP180;59249;59.736;30.568;2023-07-31T07:06:03;100236.00;;;24.30
73937;BMP180;59249;59.736;30.568;2023-07-31T07:08:32;100238.00;;;24.40
73937;BMP180;59249;59.736;30.568;2023-07-31T07:11:01;100245.00;;;24.30
73937;BMP180;59249;59.736;30.568;2023-07-31T07:13:30;100247.00;;;24.40
73937;BMP180;59249;59.736;30.568;2023-07-31T07:16:01;100246.00;;;24.50
73937;BMP180;59249;59.736;30.568;2023-07-31T07:18:30;100250.00;;;24.60
73937;BMP180;59249;59.736;30.568;2023-07-31T07:20:59;100246.00;;;24.80
73937;BMP180;59249;59.736;30.568;2023-07-31T07:23:29;100249.00;;;24.80
73937;BMP180;59249;59.736;30.568;2023-07-31T07:25:58;100249.00;;;24.80
73937;BMP180;59249;59.736;30.568;2023-07-31T07:28:28;100244.00;;;24.90
73937;BMP180;59249;59.736;30.568;2023-07-31T07:30:57;100254.00;;;25.00
73937;BMP180;59249;59.736;30.568;2023-07-31T07:33:27;100245.00;;;25.10
73937;BMP180;59249;59.736;30.568;2023-07-31T07:36:00;100248.00;;;25.10
73937;BMP180;59249;59.736;30.568;2023-07-31T07:38:31;100257.00;;;25.10
73937;BMP180;59249;59.736;30.568;2023-07-31T07:41:00;100255.00;;;25.30
73937;BMP180;59249;59.736;30.568;2023-07-31T07:43:29;100253.00;;;25.40
73937;BMP180;59249;59.736;30.568;2023-07-31T07:45:58;100254.00;;;25.40
73937;BMP180;59249;59.736;30.568;2023-07-31T07:48:29;100257.00;;;25.60
73937;BMP180;59249;59.736;30.568;2023-07-31T07:50:58;100253.00;;;25.60
73937;BMP180;59249;59.736;30.568;2023-07-31T07:53:27;100258.00;;;25.80
73937;BMP180;59249;59.736;30.568;2023-07-31T07:55:57;100252.00;;;25.80
73937;BMP180;59249;59.736;30.568;2023-07-31T07:58:26;100257.00;;;25.90
73937;BMP180;59249;59.736;30.568;2023-07-31T08:00:55;100254.00;;;25.90
73937;BMP180;59249;59.736;30.568;2023-07-31T08:03:24;100258.00;;;25.80
73937;BMP180;59249;59.736;30.568;2023-07-31T08:05:59;100254.00;;;25.60
73937;BMP180;59249;59.736;30.568;2023-07-31T08:08:28;100244.00;;;25.50
73937;BMP180;59249;59.736;30.568;2023-07-31T08:10:57;100247.00;;;25.30
73937;BMP180;59249;59.736;30.568;2023-07-31T08:13:27;100257.00;;;25.40
73937;BMP180;59249;59.736;30.568;2023-07-31T08:15:56;100250.00;;;25.60
73937;BMP180;59249;59.736;30.568;2023-07-31T08:18:25;100247.00;;;25.60
73937;BMP180;59249;59.736;30.568;2023-07-31T08:20:54;100248.00;;;25.70
73937;BMP180;59249;59.736;30.568;2023-07-31T08:23:25;100256.00;;;25.80
73937;BMP180;59249;59.736;30.568;2023-07-31T08:25:54;100256.00;;;25.80
73937;BMP180;59249;59.736;30.568;2023-07-31T08:28:23;100248.00;;;26.00
73937;BMP180;59249;59.736;30.568;2023-07-31T08:30:53;100250.00;;;25.90
73937;BMP180;59249;59.736;30.568;2023-07-31T08:33:22;100251.00;;;26.10
73937;BMP180;59249;59.736;30.568;2023-07-31T08:35:51;100252.00;;;26.10
73937;BMP180;59249;59.736;30.568;2023-07-31T08:38:20;100250.00;;;25.90
73937;BMP180;59249;59.736;30.568;2023-07-31T08:40:54;100240.00;;;25.70
73937;BMP180;59249;59.736;30.568;2023-07-31T08:43:25;100249.00;;;25.90
73937;BMP180;59249;59.736;30.568;2023-07-31T08:45:55;100253.00;;;26.00
73937;BMP180;59249;59.736;30.568;2023-07-31T08:48:25;100255.00;;;26.10
73937;BMP180;59249;59.736;30.568;2023-07-31T08:50:55;100253.00;;;26.20
73937;BMP180;59249;59.736;30.568;2023-07-31T08:53:24;100257.00;;;26.50
73937;BMP180;59249;59.736;30.568;2023-07-31T08:55:56;100255.00;;;26.60
73937;BMP180;59249;59.736;30.568;2023-07-31T08:58:31;100259.00;;;26.70
73937;BMP180;59249;59.736;30.568;2023-07-31T09:01:03;100264.00;;;26.30
73937;BMP180;59249;59.736;30.568;2023-07-31T09:03:34;100266.00;;;26.40
73937;BMP180;59249;59.736;30.568;2023-07-31T09:06:05;100262.00;;;26.50
73937;BMP180;59249;59.736;30.568;2023-07-31T09:08:36;100265.00;;;26.60
73937;BMP180;59249;59.736;30.568;2023-07-31T09:11:12;100266.00;;;26.60
73937;BMP180;59249;59.736;30.568;2023-07-31T09:13:42;100265.00;;;26.80
73937;BMP180;59249;59.736;30.568;2023-07-31T09:16:12;100257.00;;;26.90
73937;BMP180;59249;59.736;30.568;2023-07-31T09:18:53;100263.00;;;27.00
73937;BMP180;59249;59.736;30.568;2023-07-31T09:21:24;100258.00;;;27.00
73937;BMP180;59249;59.736;30.568;2023-07-31T09:23:55;100267.00;;;27.20
73937;BMP180;59249;59.736;30.568;2023-07-31T09:26:33;100274.00;;;27.30
73937;BMP180;59249;59.736;30.568;2023-07-31T09:29:06;100269.00;;;27.40
73937;BMP180;59249;59.736;30.568;2023-07-31T09:31:46;100268.00;;;27.50
73937;BMP180;59249;59.736;30.568;2023-07-31T09:34:16;100270.00;;;27.60
73937;BMP180;59249;59.736;30.568;2023-07-31T09:36:46;100266.00;;;27.70
73937;BMP180;59249;59.736;30.568;2023-07-31T09:39:17;100272.00;;;27.90
73937;BMP180;59249;59.736;30.568;2023-07-31T09:41:55;100277.00;;;27.90
73937;BMP180;59249;59.736;30.568;2023-07-31T09:44:37;100274.00;;;28.20
73937;BMP180;59249;59.736;30.568;2023-07-31T09:47:21;100265.00;;;28.20
73937;BMP180;59249;59.736;30.568;2023-07-31T09:49:53;100260.00;;;28.50
73937;BMP180;59249;59.736;30.568;2023-07-31T09:52:22;100261.00;;;28.50
73937;BMP180;59249;59.736;30.568;2023-07-31T09:54:54;100253.00;;;28.40
73937;BMP180;59249;59.736;30.568;2023-07-31T09:57:25;100255.00;;;28.50
73937;BMP180;59249;59.736;30.568;2023-07-31T09:59:58;100254.00;;;28.50
73937;BMP180;59249;59.736;30.568;2023-07-31T10:02:39;100249.00;;;28.60
73937;BMP180;59249;59.736;30.568;2023-07-31T10:05:08;100242.00;;;28.30
73937;BMP180;59249;59.736;30.568;2023-07-31T10:07:43;100239.00;;;28.40
73937;BMP180;59249;59.736;30.568;2023-07-31T10:10:20;100243.00;;;28.30
73937;BMP180;59249;59.736;30.568;2023-07-31T10:12:52;100243.00;;;28.20
73937;BMP180;59249;59.736;30.568;2023-07-31T10:15:23;100245.00;;;28.20
73937;BMP180;59249;59.736;30.568;2023-07-31T10:17:54;100240.00;;;28.30
73937;BMP180;59249;59.736;30.568;2023-07-31T10:20:24;100243.00;;;28.40
73937;BMP180;59249;59.736;30.568;2023-07-31T10:22:56;100244.00;;;28.50
73937;BMP180;59249;59.736;30.568;2023-07-31T10:25:27;100238.00;;;28.30
73937;BMP180;59249;59.736;30.568;2023-07-31T10:27:59;100232.00;;;28.30
73937;BMP180;59249;59.736;30.568;2023-07-31T10:30:32;100236.00;;;28.30
73937;BMP180;59249;59.736;30.568;2023-07-31T10:33:06;100235.00;;;28.20
73937;BMP180;59249;59.736;30.568;2023-07-31T10:35:36;100233.00;;;28.20
73937;BMP180;59249;59.736;30.568;2023-07-31T10:38:10;100230.00;;;28.10
73937;BMP180;59249;59.736;30.568;2023-07-31T10:40:43;100235.00;;;28.10
73937;BMP180;59249;59.736;30.568;2023-07-31T10:43:25;100233.00;;;27.80
73937;BMP180;59249;59.736;30.568;2023-07-31T10:45:54;100225.00;;;27.80
73937;BMP180;59249;59.736;30.568;2023-07-31T10:48:33;100228.00;;;27.60
73937;BMP180;59249;59.736;30.568;2023-07-31T10:51:07;100237.00;;;27.20
73937;BMP180;59249;59.736;30.568;2023-07-31T10:53:39;100228.00;;;27.20
73937;BMP180;59249;59.736;30.568;2023-07-31T10:56:09;100223.00;;;27.10
73937;BMP180;59249;59.736;30.568;2023-07-31T10:58:43;100225.00;;;27.30
73937;BMP180;59249;59.736;30.568;2023-07-31T11:01:13;100220.00;;;27.50
73937;BMP180;59249;59.736;30.568;2023-07-31T11:03:44;100217.00;;;27.50
73937;BMP180;59249;59.736;30.568;2023-07-31T11:06:16;100210.00;;;27.50
73937;BMP180;59249;59.736;30.568;2023-07-31T11:08:47;100222.00;;;27.50
73937;BMP180;59249;59.736;30.568;2023-07-31T11:11:19;100223.00;;;27.40
73937;BMP180;59249;59.736;30.568;2023-07-31T11:13:51;100222.00;;;27.40
73937;BMP180;59249;59.736;30.568;2023-07-31T11:16:23;100217.00;;;27.30
73937;BMP180;59249;59.736;30.568;2023-07-31T11:18:54;100224.00;;;27.40
73937;BMP180;59249;59.736;30.568;2023-07-31T11:21:24;100215.00;;;27.70
73937;BMP180;59249;59.736;30.568;2023-07-31T11:23:56;100213.00;;;27.70
73937;BMP180;59249;59.736;30.568;2023-07-31T11:26:27;100220.00;;;27.90
73937;BMP180;59249;59.736;30.568;2023-07-31T11:28:59;100211.00;;;28.20
73937;BMP180;59249;59.736;30.568;2023-07-31T11:31:28;100215.00;;;28.40
73937;BMP180;59249;59.736;30.568;2023-07-31T11:34:06;100222.00;;;28.50
73937;BMP180;59249;59.736;30.568;2023-07-31T11:36:36;100228.00;;;28.50
73937;BMP180;59249;59.736;30.568;2023-07-31T11:39:05;100208.00;;;28.10
73937;BMP180;59249;59.736;30.568;2023-07-31T11:41:36;100212.00;;;28.10
73937;BMP180;59249;59.736;30.568;2023-07-31T11:44:10;100215.00;;;27.70
73937;BMP180;59249;59.736;30.568;2023-07-31T11:46:56;100214.00;;;27.70
73937;BMP180;59249;59.736;30.568;2023-07-31T11:49:29;100215.00;;;27.60
73937;BMP180;59249;59.736;30.568;2023-07-31T11:52:04;100210.00;;;27.00
73937;BMP180;59249;59.736;30.568;2023-07-31T11:54:33;100206.00;;;27.20
73937;BMP180;59249;59.736;30.568;2023-07-31T11:57:04;100204.00;;;27.20
73937;BMP180;59249;59.736;30.568;2023-07-31T11:59:37;100196.00;;;27.20
73937;BMP180;59249;59.736;30.568;2023-07-31T12:02:07;100202.00;;;27.10
73937;BMP180;59249;59.736;30.568;2023-07-31T12:04:37;100200.00;;;27.10
73937;BMP180;59249;59.736;30.568;2023-07-31T12:07:06;100204.00;;;27.10
73937;BMP180;59249;59.736;30.568;2023-07-31T12:09:35;100200.00;;;27.00
73937;BMP180;59249;59.736;30.568;2023-07-31T12:12:08;100204.00;;;27.10
73937;BMP180;59249;59.736;30.568;2023-07-31T12:14:41;100205.00;;;27.20
73937;BMP180;59249;59.736;30.568;2023-07-31T12:17:11;100194.00;;;27.50
73937;BMP180;59249;59.736;30.568;2023-07-31T12:19:40;100197.00;;;27.50
73937;BMP180;59249;59.736;30.568;2023-07-31T12:22:13;100193.00;;;27.40
73937;BMP180;59249;59.736;30.568;2023-07-31T12:24:44;100194.00;;;27.30
73937;BMP180;59249;59.736;30.568;2023-07-31T12:27:14;100185.00;;;27.30
73937;BMP180;59249;59.736;30.568;2023-07-31T12:29:47;100191.00;;;26.90
73937;BMP180;59249;59.736;30.568;2023-07-31T12:32:20;100186.00;;;26.90
73937;BMP180;59249;59.736;30.568;2023-07-31T12:34:50;100197.00;;;26.90
73937;BMP180;59249;59.736;30.568;2023-07-31T12:37:20;100192.00;;;26.80
73937;BMP180;59249;59.736;30.568;2023-07-31T12:39:52;100188.00;;;26.80
73937;BMP180;59249;59.736;30.568;2023-07-31T12:42:21;100189.00;;;26.90
73937;BMP180;59249;59.736;30.568;2023-07-31T12:45:00;100185.00;;;27.00
73937;BMP180;59249;59.736;30.568;2023-07-31T12:47:30;100185.00;;;27.00
73937;BMP180;59249;59.736;30.568;2023-07-31T12:50:00;100184.00;;;27.00
73937;BMP180;59249;59.736;30.568;2023-07-31T12:52:32;100191.00;;;26.90
73937;BMP180;59249;59.736;30.568;2023-07-31T12:55:23;100190.00;;;26.70
73937;BMP180;59249;59.736;30.568;2023-07-31T12:57:56;100189.00;;;26.50
73937;BMP180;59249;59.736;30.568;2023-07-31T13:00:27;100191.00;;;26.40
73937;BMP180;59249;59.736;30.568;2023-07-31T13:02:56;100184.00;;;26.40
73937;BMP180;59249;59.736;30.568;2023-07-31T13:05:25;100188.00;;;26.50
73937;BMP180;59249;59.736;30.568;2023-07-31T13:07:55;100186.00;;;26.80
73937;BMP180;59249;59.736;30.568;2023-07-31T13:10:24;100179.00;;;27.00
73937;BMP180;59249;59.736;30.568;2023-07-31T13:12:54;100187.00;;;27.00
73937;BMP180;59249;59.736;30.568;2023-07-31T13:15:24;100184.00;;;27.20
73937;BMP180;59249;59.736;30.568;2023-07-31T13:17:54;100175.00;;;27.40
73937;BMP180;59249;59.736;30.568;2023-07-31T13:20:24;100174.00;;;27.70
73937;BMP180;59249;59.736;30.568;2023-07-31T13:22:53;100177.00;;;27.90
73937;BMP180;59249;59.736;30.568;2023-07-31T13:25:22;100174.00;;;28.20
73937;BMP180;59249;59.736;30.568;2023-07-31T13:27:51;100181.00;;;28.30
73937;BMP180;59249;59.736;30.568;2023-07-31T13:30:20;100176.00;;;28.50
73937;BMP180;59249;59.736;30.568;2023-07-31T13:32:49;100177.00;;;28.60
73937;BMP180;59249;59.736;30.568;2023-07-31T13:35:20;100177.00;;;28.60
73937;BMP180;59249;59.736;30.568;2023-07-31T13:37:49;100177.00;;;28.70
73937;BMP180;59249;59.736;30.568;2023-07-31T13:40:18;100172.00;;;28.70
73937;BMP180;59249;59.736;30.568;2023-07-31T13:42:48;100168.00;;;28.70
73937;BMP180;59249;59.736;30.568;2023-07-31T13:45:17;100166.00;;;28.60
73937;BMP180;59249;59.736;30.568;2023-07-31T13:47:46;100165.00;;;28.70
73937;BMP180;59249;59.736;30.568;2023-07-31T13:50:15;100169.00;;;28.80
73937;BMP180;59249;59.736;30.568;2023-07-31T13:52:48;100159.00;;;28.90
73937;BMP180;59249;59.736;30.568;2023-07-31T13:55:17;100163.00;;;28.90
73937;BMP180;59249;59.736;30.568;2023-07-31T13:57:46;100164.00;;;29.00
73937;BMP180;59249;59.736;30.568;2023-07-31T14:00:16;100160.00;;;29.10
73937;BMP180;59249;59.736;30.568;2023-07-31T14:02:45;100168.00;;;29.10
73937;BMP180;59249;59.736;30.568;2023-07-31T14:05:14;100157.00;;;29.20